Data for 03/29/2006

Time Sea-Level Adjusted Pressure Absolute Pressure Temperature Relative Humidity Dew Point   
(mb) (inHg) (mb) (inHg) (C) (F) (%) (C) (F)
00:05 1007 29.74 836 24.69 4.3 39.7 73 -0.1 31.8
00:10 1007 29.74 836 24.69 4.5 40.1 72 -0 31.9
00:15 1007 29.74 836 24.69 4.6 40.3 72 0.1 32.2
00:20 1007 29.74 836 24.69 4.9 40.8 71 0.1 32.3
00:25 1007 29.74 836 24.69 5 41 72 0.3 32.6
00:30 1007 29.74 836 24.69 5 41 72 0.3 32.6
00:35 1007 29.74 836 24.69 4.9 40.8 73 0.4 32.7
00:40 1007 29.74 836 24.69 4.9 40.9 72 0.4 32.6
00:45 1007 29.74 836 24.69 4.9 40.7 74 0.6 33
00:50 1007 29.74 836 24.69 4.6 40.2 74 0.4 32.7
00:55 1006 29.71 836 24.69 4.7 40.5 73 0.3 32.5
01:00 1006 29.71 836 24.69 4.5 40 75 0.3 32.6
01:05 1006 29.71 836 24.69 4.6 40.3 73 0.2 32.4
01:10 1006 29.71 836 24.69 4.5 40 74 0.3 32.6
01:15 1007 29.74 836 24.69 4.5 40.2 73 0.1 32.3
01:20 1007 29.74 836 24.69 4.6 40.3 73 0.2 32.3
01:25 1006 29.71 836 24.69 4.5 40.1 73 0.1 32.1
01:30 1006 29.71 836 24.69 4.4 39.9 73 -0 32
01:35 1006 29.71 836 24.69 4.7 40.5 72 0 32
01:40 1006 29.71 835 24.66 4.8 40.7 72 0.1 32.2
01:45 1006 29.71 835 24.66 4.8 40.6 72 0.1 32.2
01:50 1006 29.71 835 24.66 4.8 40.6 72 0.1 32.2
01:55 1006 29.71 835 24.66 4.8 40.6 72 0.2 32.3
02:00 1006 29.71 835 24.66 4.4 39.9 74 0.1 32.2
02:05 1006 29.71 835 24.66 4.3 39.8 75 0.2 32.4
02:10 1006 29.71 835 24.66 4.2 39.5 75 0.1 32.2
02:15 1006 29.71 835 24.66 4.4 39.8 74 0.1 32.2
02:20 1006 29.71 835 24.66 4.4 40 74 0.3 32.5
02:25 1006 29.71 835 24.66 4.3 39.8 75 0.2 32.4
02:30 1006 29.71 835 24.66 4.5 40.1 73 0.1 32.1
02:35 1006 29.71 835 24.66 4.3 39.7 74 0.1 32.2
02:40 1006 29.71 835 24.66 4 39.1 75 -0.1 31.8
02:45 1005 29.68 835 24.66 3.8 38.8 76 -0.1 31.9
02:50 1005 29.68 835 24.66 3.2 37.7 79 -0.2 31.7
02:55 1005 29.68 834 24.63 3 37.4 80 -0.2 31.6
03:00 1005 29.68 834 24.63 3.1 37.6 79 -0.1 31.7
03:05 1005 29.68 834 24.63 3 37.5 80 -0 31.9
03:10 1005 29.68 834 24.63 3.8 38.9 76 -0 32
03:15 1005 29.68 834 24.63 4.1 39.4 75 0 32.1
03:20 1005 29.68 834 24.63 4.1 39.4 75 0.1 32.1
03:25 1005 29.68 834 24.63 3.7 38.6 78 0.1 32.2
03:30 1005 29.68 834 24.63 3.2 37.8 80 0.1 32.1
03:35 1005 29.68 834 24.63 3.1 37.7 79 -0.2 31.7
03:40 1005 29.68 834 24.63 3.6 38.4 77 -0.1 31.9
03:45 1005 29.68 834 24.63 3.4 38.2 78 -0 32
03:50 1004 29.65 834 24.63 3.6 38.5 78 0.2 32.3
03:55 1004 29.65 834 24.63 4 39.2 75 0.1 32.1
04:00 1004 29.65 834 24.63 3.9 38.9 76 0.1 32.2
04:05 1004 29.65 834 24.63 3.6 38.5 78 0.2 32.4
04:10 1004 29.65 833 24.6 3.5 38.4 78 0.1 32.2
04:15 1004 29.65 833 24.6 4 39.2 76 0.1 32.2
04:20 1004 29.65 833 24.6 4.4 39.9 75 0.3 32.5
04:25 1004 29.65 833 24.6 3.9 39 77 0.2 32.4
04:30 1004 29.65 833 24.6 3.3 37.9 79 -0.1 31.9
04:35 1004 29.65 833 24.6 3.4 38.1 77 -0.2 31.7
04:40 1004 29.65 833 24.6 3.8 38.9 75 -0.1 31.8
04:45 1004 29.65 833 24.6 3.5 38.4 77 -0.1 31.8
04:50 1004 29.65 833 24.6 3.8 38.8 76 0 32
04:55 1004 29.65 833 24.6 3.3 37.9 78 -0.1 31.8
05:00 1004 29.65 833 24.6 3.1 37.6 79 -0.3 31.5
05:05 1004 29.65 833 24.6 3.4 38.1 77 -0.2 31.6
05:10 1004 29.65 833 24.6 3.2 37.8 78 -0.2 31.6
05:15 1004 29.65 833 24.6 2.8 37 80 -0.3 31.4
05:20 1004 29.65 833 24.6 2.4 36.2 81 -0.6 30.9
05:25 1004 29.65 833 24.6 2.2 35.9 83 -0.4 31.2
05:30 1004 29.65 833 24.6 2.2 36 82 -0.5 31.1
05:35 1004 29.65 833 24.6 2.5 36.4 81 -0.5 31
05:40 1004 29.65 833 24.6 2.4 36.3 82 -0.4 31.2
05:45 1004 29.65 833 24.6 2.4 36.3 81 -0.6 30.9
05:50 1004 29.65 833 24.6 2.5 36.5 81 -0.4 31.2
05:55 1004 29.65 833 24.6 2.5 36.6 81 -0.4 31.3
06:00 1004 29.65 833 24.6 2.6 36.6 81 -0.5 31.2
06:05 1004 29.65 833 24.6 2.4 36.2 83 -0.3 31.4
06:10 1004 29.65 833 24.6 2 35.6 84 -0.5 31.1
06:15 1004 29.65 833 24.6 2.4 36.2 81 -0.6 30.9
06:20 1004 29.65 833 24.6 2.6 36.7 81 -0.3 31.4
06:25 1004 29.65 833 24.6 3.2 37.7 78 -0.2 31.6
06:30 1004 29.65 833 24.6 3.1 37.5 77 -0.5 31.1
06:35 1004 29.65 833 24.6 3.1 37.7 79 -0.2 31.6
06:40 1004 29.65 833 24.6 3.5 38.4 77 -0.1 31.9
06:45 1004 29.65 833 24.6 3.1 37.5 80 -0.1 31.7
06:50 1004 29.65 833 24.6 3.2 37.8 77 -0.3 31.4
06:55 1004 29.65 833 24.6 3.6 38.5 76 -0.1 31.7
07:00 1004 29.65 833 24.6 2.8 37 82 -0.1 31.9
07:05 1004 29.65 833 24.6 2.8 37.1 78 -0.6 30.9
07:10 1004 29.65 833 24.6 3.6 38.5 76 -0.3 31.5
07:15 1004 29.65 833 24.6 3.6 38.5 77 -0.1 31.8
07:20 1004 29.65 833 24.6 3.4 38.1 78 -0.1 31.7
07:25 1004 29.65 833 24.6 4 39.2 75 -0.1 31.9
07:30 1004 29.65 833 24.6 4.6 40.3 73 0.2 32.4
07:35 1003 29.62 833 24.6 4.7 40.5 73 0.2 32.4
07:40 1003 29.62 833 24.6 4.8 40.6 74 0.4 32.8
07:45 1003 29.62 833 24.6 4.6 40.2 74 0.4 32.7
07:50 1003 29.62 833 24.6 4.6 40.3 75 0.6 33.1
07:55 1003 29.62 833 24.6 4.1 39.4 77 0.4 32.8
08:00 1003 29.62 833 24.6 4.5 40 75 0.4 32.7
08:05 1003 29.62 833 24.6 4.5 40.1 75 0.5 33
08:10 1003 29.62 833 24.6 4.8 40.6 74 0.6 33
08:15 1003 29.62 833 24.6 5 41.1 73 0.7 33.2
08:20 1003 29.62 832 24.57 5.5 41.8 72 0.8 33.5
08:25 1003 29.62 832 24.57 5.7 42.2 72 0.9 33.7
08:30 1003 29.62 832 24.57 6 42.7 70 0.9 33.7
08:35 1003 29.62 832 24.57 6.2 43.2 70 1.2 34.1
08:40 1003 29.62 832 24.57 6.3 43.4 70 1.2 34.1
08:45 1003 29.62 832 24.57 6.6 43.9 68 1.1 34
08:50 1003 29.62 832 24.57 6.9 44.5 68 1.5 34.8
08:55 1003 29.62 832 24.57 6.9 44.4 69 1.6 34.8
09:00 1003 29.62 832 24.57 6.9 44.4 69 1.6 34.9
09:05 1003 29.62 832 24.57 7 44.6 69 1.7 35.1
09:10 1003 29.62 832 24.57 7.1 44.7 69 1.7 35.1
09:15 1003 29.62 832 24.57 6.9 44.4 69 1.6 34.8
09:20 1003 29.62 832 24.57 7 44.6 69 1.7 35
09:25 1003 29.62 832 24.57 7.2 45 66 1.4 34.5
09:30 1003 29.62 832 24.57 7.8 46 64 1.4 34.6
09:35 1003 29.62 832 24.57 8.4 47 61 1.2 34.2
09:40 1003 29.62 832 24.57 8.6 47.4 63 1.9 35.4
09:45 1003 29.62 832 24.57 8.4 47.2 62 1.6 34.9
09:50 1003 29.62 832 24.57 8.3 46.9 64 1.9 35.3
09:55 1003 29.62 832 24.57 8.1 46.6 66 2.1 35.8
10:00 1003 29.62 832 24.57 7.6 45.7 69 2.4 36.3
10:05 1003 29.62 832 24.57 7.3 45.2 72 2.6 36.7
10:10 1003 29.62 832 24.57 6.9 44.4 74 2.6 36.6
10:15 1003 29.62 832 24.57 6.9 44.5 72 2.3 36.2
10:20 1003 29.62 832 24.57 7.1 44.7 72 2.3 36.2
10:25 1003 29.62 832 24.57 7.1 44.7 72 2.4 36.4
10:30 1003 29.62 832 24.57 7 44.5 72 2.3 36.2
10:35 1003 29.62 832 24.57 7.1 44.9 72 2.4 36.3
10:40 1003 29.62 832 24.57 7 44.6 73 2.4 36.3
10:45 1003 29.62 832 24.57 7 44.6 71 2.2 35.9
10:50 1003 29.62 832 24.57 7.2 45 71 2.2 36
10:55 1003 29.62 832 24.57 7.3 45.2 69 2.1 35.8
11:00 1003 29.62 832 24.57 7.6 45.7 69 2.2 36
11:05 1003 29.62 832 24.57 7.7 45.8 67 1.9 35.4
11:10 1003 29.62 832 24.57 7.6 45.7 69 2.2 36
11:15 1003 29.62 832 24.57 7.6 45.6 68 2 35.7
11:20 1003 29.62 832 24.57 8 46.3 65 1.9 35.4
11:25 1003 29.62 832 24.57 8.4 47.2 66 2.4 36.3
11:30 1003 29.62 832 24.57 8.5 47.3 64 2.2 36
11:35 1003 29.62 832 24.57 8.7 47.6 66 2.6 36.8
11:40 1003 29.62 832 24.57 8.8 47.8 66 2.8 37
11:45 1003 29.62 832 24.57 8.7 47.7 66 2.8 37
11:50 1003 29.62 832 24.57 8.2 46.7 70 3 37.4
11:55 1003 29.62 832 24.57 8.4 47.1 70 3.2 37.8
12:00 1003 29.62 832 24.57 8.1 46.7 72 3.4 38.1
12:05 1003 29.62 832 24.57 7.8 46.1 71 2.9 37.1
12:10 1003 29.62 832 24.57 7.6 45.6 72 2.9 37.1
12:15 1003 29.62 832 24.57 7.2 45 73 2.7 36.9
12:20 1003 29.62 832 24.57 6.9 44.5 74 2.6 36.7
12:25 1003 29.62 832 24.57 6.9 44.5 74 2.7 36.8
12:30 1003 29.62 832 24.57 7.5 45.6 75 3.3 38
12:35 1003 29.62 832 24.57 7.4 45.3 77 3.6 38.4
12:40 1003 29.62 832 24.57 6.9 44.5 78 3.4 38.2
12:45 1003 29.62 832 24.57 6.7 44.1 79 3.3 38
12:50 1003 29.62 832 24.57 6.6 43.9 80 3.4 38.1
12:55 1003 29.62 832 24.57 6.5 43.6 81 3.4 38.1
13:00 1003 29.62 832 24.57 6.5 43.6 80 3.3 37.9
13:05 1003 29.62 832 24.57 6.5 43.6 82 3.5 38.4
13:10 1003 29.62 832 24.57 6.8 44.2 80 3.6 38.5
13:15 1003 29.62 832 24.57 7.3 45.2 76 3.5 38.2
13:20 1003 29.62 832 24.57 7.3 45.1 79 4 39.1
13:25 1003 29.62 832 24.57 7.4 45.2 78 3.8 38.9
13:30 1003 29.62 832 24.57 7.5 45.5 79 4.1 39.4
13:35 1003 29.62 832 24.57 7.5 45.5 80 4.3 39.7
13:40 1003 29.62 833 24.6 7.2 45 82 4.3 39.7
13:45 1003 29.62 833 24.6 7.1 44.8 82 4.2 39.6
13:50 1003 29.62 833 24.6 7.2 44.9 82 4.2 39.6
13:55 1003 29.62 832 24.57 6.9 44.4 85 4.5 40.2
14:00 1003 29.62 832 24.57 6.2 43.2 89 4.6 40.3
14:05 1003 29.62 832 24.57 6.1 42.9 91 4.6 40.3
14:10 1003 29.62 832 24.57 6.3 43.3 90 4.8 40.6
14:15 1003 29.62 833 24.6 6.5 43.7 88 4.6 40.4
14:20 1003 29.62 833 24.6 6.6 43.9 86 4.4 39.9
14:25 1003 29.62 833 24.6 6.6 43.9 86 4.5 40.1
14:30 1003 29.62 833 24.6 6.6 43.8 87 4.5 40.1
14:35 1003 29.62 833 24.6 6.3 43.4 88 4.5 40.1
14:40 1003 29.62 833 24.6 6.2 43.1 90 4.6 40.3
14:45 1003 29.62 833 24.6 6.4 43.5 87 4.4 39.9
14:50 1003 29.62 833 24.6 6.4 43.6 88 4.5 40.1
14:55 1003 29.62 833 24.6 6.4 43.5 86 4.3 39.8
15:00 1003 29.62 833 24.6 6.1 43 88 4.3 39.8
15:05 1003 29.62 833 24.6 6 42.9 89 4.3 39.8
15:10 1003 29.62 833 24.6 6.1 43 87 4.1 39.4
15:15 1003 29.62 833 24.6 6.3 43.3 88 4.4 39.9
15:20 1003 29.62 833 24.6 6.4 43.5 85 4.1 39.3
15:25 1003 29.62 833 24.6 6.1 43 87 4.1 39.4
15:30 1004 29.65 833 24.6 6.2 43.2 86 4 39.3
15:35 1004 29.65 833 24.6 6.3 43.4 87 4.2 39.6
15:40 1004 29.65 833 24.6 6.2 43.2 85 3.9 39
15:45 1003 29.62 833 24.6 6.2 43.1 86 3.9 39.1
15:50 1003 29.62 833 24.6 6.2 43.1 86 3.9 39.1
15:55 1003 29.62 833 24.6 6.2 43.1 86 4 39.1
16:00 1003 29.62 833 24.6 6 42.9 85 3.8 38.8
16:05 1003 29.62 833 24.6 5.9 42.7 87 3.9 39
16:10 1003 29.62 833 24.6 5.9 42.7 88 4.1 39.4
16:15 1003 29.62 833 24.6 6 42.8 88 4.1 39.4
16:20 1003 29.62 833 24.6 6.1 42.9 87 4 39.2
16:25 1003 29.62 833 24.6 6 42.8 87 4 39.1
16:30 1003 29.62 833 24.6 6.2 43.1 86 4 39.3
16:35 1003 29.62 833 24.6 6.2 43.1 86 4 39.1
16:40 1003 29.62 833 24.6 6.1 43 86 3.9 39
16:45 1003 29.62 833 24.6 6.2 43.1 86 4.1 39.3
16:50 1003 29.62 833 24.6 6.3 43.3 86 4.1 39.5
16:55 1003 29.62 833 24.6 6.3 43.4 85 4 39.2
17:00 1004 29.65 833 24.6 6.4 43.5 86 4.3 39.7
17:05 1004 29.65 833 24.6 6.4 43.5 84 3.9 39.1
17:10 1004 29.65 833 24.6 6.3 43.3 85 4 39.2
17:15 1004 29.65 833 24.6 6.5 43.6 85 4.2 39.5
17:20 1004 29.65 833 24.6 6.6 43.9 84 4.2 39.6
17:25 1004 29.65 833 24.6 6.7 44 83 4 39.2
17:30 1004 29.65 833 24.6 6.7 44 84 4.1 39.4
17:35 1004 29.65 833 24.6 6.7 44.1 84 4.1 39.5
17:40 1004 29.65 833 24.6 6.9 44.4 83 4.2 39.5
17:45 1004 29.65 833 24.6 7.1 44.8 82 4.2 39.6
17:50 1004 29.65 833 24.6 7.2 44.9 82 4.3 39.8
17:55 1004 29.65 833 24.6 7.2 45 82 4.4 39.9
18:00 1004 29.65 833 24.6 7.2 45 81 4.2 39.5
18:05 1004 29.65 833 24.6 7.2 45 81 4.3 39.7
18:10 1004 29.65 833 24.6 7.3 45.2 80 4.2 39.5
18:15 1004 29.65 833 24.6 7.3 45.2 81 4.3 39.7
18:20 1004 29.65 834 24.63 7.2 45 81 4.3 39.7
18:25 1004 29.65 834 24.63 7.2 45 80 4.1 39.3
18:30 1005 29.68 834 24.63 7.1 44.9 81 4.2 39.5
18:35 1005 29.68 834 24.63 6.7 44 83 3.9 39.1
18:40 1005 29.68 834 24.63 6.1 43 84 3.6 38.6
18:45 1005 29.68 834 24.63 5.7 42.3 86 3.5 38.3
18:50 1005 29.68 834 24.63 5.5 41.8 86 3.2 37.8
18:55 1005 29.68 834 24.63 5.4 41.6 86 3.1 37.7
19:00 1005 29.68 834 24.63 5.3 41.5 85 3.1 37.5
19:05 1005 29.68 834 24.63 5.2 41.4 86 3 37.4
19:10 1005 29.68 834 24.63 5.1 41.2 85 2.8 37
19:15 1005 29.68 834 24.63 5.2 41.3 85 2.9 37.1
19:20 1005 29.68 834 24.63 5.2 41.4 84 2.8 37
19:25 1005 29.68 835 24.66 5.2 41.3 84 2.7 36.9
19:30 1005 29.68 835 24.66 5.1 41.2 85 2.8 37
19:35 1006 29.71 835 24.66 5.1 41.2 86 3 37.3
19:40 1006 29.71 835 24.66 5 41 87 3 37.3
19:45 1006 29.71 835 24.66 5 40.9 88 3.1 37.7
19:50 1006 29.71 835 24.66 5 41 88 3.1 37.6
19:55 1006 29.71 835 24.66 4.9 40.8 88 3 37.5
20:00 1006 29.71 835 24.66 4.8 40.6 88 3 37.4
20:05 1006 29.71 835 24.66 4.7 40.5 91 3.3 38
20:10 1006 29.71 835 24.66 4.4 40 93 3.4 38.1
20:15 1006 29.71 835 24.66 4.3 39.7 95 3.5 38.3
20:20 1006 29.71 835 24.66 4.1 39.4 95 3.4 38
20:25 1006 29.71 835 24.66 3.6 38.5 95 2.9 37.3
20:30 1006 29.71 835 24.66 3.2 37.8 95 2.5 36.5
20:35 1006 29.71 836 24.69 3 37.3 96 2.3 36.2
20:40 1006 29.71 836 24.69 2.9 37.2 96 2.3 36.1
20:45 1007 29.74 836 24.69 2.8 37.1 96 2.3 36.1
20:50 1007 29.74 836 24.69 2.7 36.9 96 2.1 35.8
20:55 1007 29.74 836 24.69 2.6 36.6 96 2 35.6
21:00 1007 29.74 836 24.69 2.6 36.6 96 2.1 35.7
21:05 1007 29.74 836 24.69 2.5 36.5 96 2 35.5
21:10 1007 29.74 836 24.69 2.4 36.2 96 1.8 35.3
21:15 1007 29.74 836 24.69 2.3 36.2 97 1.8 35.3
21:20 1007 29.74 836 24.69 2.3 36.2 97 1.8 35.3
21:25 1007 29.74 836 24.69 2.3 36.1 96 1.7 35.1
21:30 1007 29.74 837 24.72 2.1 35.7 95 1.3 34.4
21:35 1007 29.74 837 24.72 1.8 35.3 96 1.2 34.1
21:40 1008 29.77 837 24.72 1.7 35.1 95 1.1 33.9
21:45 1008 29.77 837 24.72 1.5 34.7 96 0.9 33.6
21:50 1008 29.77 837 24.72 1.5 34.7 96 0.9 33.6
21:55 1008 29.77 837 24.72 1.4 34.4 96 0.8 33.4
22:00 1008 29.77 837 24.72 1.3 34.3 96 0.8 33.4
22:05 1008 29.77 837 24.72 1.3 34.3 96 0.8 33.4
22:10 1008 29.77 837 24.72 1.3 34.3 96 0.8 33.4
22:15 1008 29.77 837 24.72 1.3 34.4 96 0.8 33.5
22:20 1008 29.77 837 24.72 1.4 34.5 96 0.8 33.4
22:25 1008 29.77 837 24.72 1.2 34.1 96 0.6 33.1
22:30 1008 29.77 837 24.72 1.1 33.9 97 0.6 33
22:35 1008 29.77 837 24.72 0.8 33.5 97 0.4 32.7
22:40 1008 29.77 837 24.72 0.6 33.1 98 0.2 32.4
22:45 1008 29.77 837 24.72 0.7 33.2 98 0.4 32.7
22:50 1008 29.77 837 24.72 0.8 33.5 98 0.6 33
22:55 1008 29.77 837 24.72 1 33.7 97 0.6 33.1
23:00 1008 29.77 838 24.75 0.9 33.7 98 0.6 33.1
23:05 1008 29.77 838 24.75 0.9 33.7 97 0.6 33
23:10 1008 29.77 838 24.75 1.1 34 97 0.6 33.1
23:15 1008 29.77 838 24.75 1 33.8 97 0.5 33
23:20 1009 29.8 838 24.75 1 33.7 97 0.5 33
23:25 1009 29.8 838 24.75 1 33.7 97 0.5 33
23:30 1009 29.8 838 24.75 1 33.8 97 0.5 33
23:35 1009 29.8 838 24.75 0.9 33.6 97 0.5 32.9
23:40 1009 29.8 838 24.75 0.9 33.5 98 0.5 32.9
23:45 1009 29.8 838 24.75 0.8 33.4 97 0.4 32.8
23:50 1009 29.8 838 24.75 1 33.8 97 0.6 33.1
23:55 1009 29.8 838 24.75 1 33.7 97 0.5 32.9
24:00 1009 29.8 838 24.75 0.9 33.7 97 0.5 32.9